sensor_id;sensor_type;location;lat;lon;timestamp;P1;durP1;ratioP1;P2;durP2;ratioP2
65210;SDS011;51794;52.758;55.792;2022-12-05T00:01:18;21.92;;;9.18;;
65210;SDS011;51794;52.758;55.792;2022-12-05T00:03:56;21.00;;;9.52;;
65210;SDS011;51794;52.758;55.792;2022-12-05T00:06:24;27.73;;;15.80;;
65210;SDS011;51794;52.758;55.792;2022-12-05T00:08:52;23.55;;;10.02;;
65210;SDS011;51794;52.758;55.792;2022-12-05T00:11:19;33.03;;;15.63;;
65210;SDS011;51794;52.758;55.792;2022-12-05T00:13:48;30.00;;;15.87;;
65210;SDS011;51794;52.758;55.792;2022-12-05T00:16:17;22.02;;;9.68;;
65210;SDS011;51794;52.758;55.792;2022-12-05T00:18:44;27.23;;;15.85;;
65210;SDS011;51794;52.758;55.792;2022-12-05T00:21:13;16.60;;;8.40;;
65210;SDS011;51794;52.758;55.792;2022-12-05T00:23:41;18.00;;;7.28;;
65210;SDS011;51794;52.758;55.792;2022-12-05T00:26:07;23.65;;;10.82;;
65210;SDS011;51794;52.758;55.792;2022-12-05T00:28:33;27.80;;;15.10;;
65210;SDS011;51794;52.758;55.792;2022-12-05T00:31:04;27.55;;;12.23;;
65210;SDS011;51794;52.758;55.792;2022-12-05T00:33:34;22.30;;;10.40;;
65210;SDS011;51794;52.758;55.792;2022-12-05T00:36:01;25.55;;;10.77;;
65210;SDS011;51794;52.758;55.792;2022-12-05T00:38:29;18.92;;;8.40;;
65210;SDS011;51794;52.758;55.792;2022-12-05T00:40:55;30.00;;;14.98;;
65210;SDS011;51794;52.758;55.792;2022-12-05T00:43:21;23.05;;;9.65;;
65210;SDS011;51794;52.758;55.792;2022-12-05T00:45:47;16.67;;;8.05;;
65210;SDS011;51794;52.758;55.792;2022-12-05T00:48:13;27.52;;;13.23;;
65210;SDS011;51794;52.758;55.792;2022-12-05T00:50:39;20.05;;;10.48;;
65210;SDS011;51794;52.758;55.792;2022-12-05T00:53:05;14.88;;;8.35;;
65210;SDS011;51794;52.758;55.792;2022-12-05T00:55:31;23.67;;;11.90;;
65210;SDS011;51794;52.758;55.792;2022-12-05T00:58:01;20.05;;;8.85;;
65210;SDS011;51794;52.758;55.792;2022-12-05T01:00:27;14.18;;;6.57;;
65210;SDS011;51794;52.758;55.792;2022-12-05T01:02:54;26.55;;;12.27;;
65210;SDS011;51794;52.758;55.792;2022-12-05T01:05:20;24.73;;;11.00;;
65210;SDS011;51794;52.758;55.792;2022-12-05T01:07:46;24.10;;;12.65;;
65210;SDS011;51794;52.758;55.792;2022-12-05T01:10:12;22.60;;;11.57;;
65210;SDS011;51794;52.758;55.792;2022-12-05T01:12:38;23.15;;;11.02;;
65210;SDS011;51794;52.758;55.792;2022-12-05T01:15:04;16.08;;;7.75;;
65210;SDS011;51794;52.758;55.792;2022-12-05T01:17:30;23.35;;;13.10;;
65210;SDS011;51794;52.758;55.792;2022-12-05T01:19:56;18.55;;;9.65;;
65210;SDS011;51794;52.758;55.792;2022-12-05T01:22:22;15.82;;;7.60;;
65210;SDS011;51794;52.758;55.792;2022-12-05T01:24:48;17.25;;;9.15;;
65210;SDS011;51794;52.758;55.792;2022-12-05T01:27:14;27.50;;;14.18;;
65210;SDS011;51794;52.758;55.792;2022-12-05T01:29:39;32.97;;;17.35;;
65210;SDS011;51794;52.758;55.792;2022-12-05T01:32:05;17.50;;;9.25;;
65210;SDS011;51794;52.758;55.792;2022-12-05T01:34:31;19.08;;;10.88;;
65210;SDS011;51794;52.758;55.792;2022-12-05T01:36:57;24.50;;;12.30;;
65210;SDS011;51794;52.758;55.792;2022-12-05T01:39:23;29.15;;;14.27;;
65210;SDS011;51794;52.758;55.792;2022-12-05T01:41:49;29.08;;;13.38;;
65210;SDS011;51794;52.758;55.792;2022-12-05T01:46:45;15.80;;;8.02;;
65210;SDS011;51794;52.758;55.792;2022-12-05T01:49:16;18.10;;;9.32;;
65210;SDS011;51794;52.758;55.792;2022-12-05T01:51:45;18.95;;;8.85;;
65210;SDS011;51794;52.758;55.792;2022-12-05T01:54:14;29.88;;;16.35;;
65210;SDS011;51794;52.758;55.792;2022-12-05T01:56:43;19.63;;;9.93;;
65210;SDS011;51794;52.758;55.792;2022-12-05T01:59:12;17.38;;;9.23;;
65210;SDS011;51794;52.758;55.792;2022-12-05T02:01:39;22.25;;;9.50;;
65210;SDS011;51794;52.758;55.792;2022-12-05T02:04:05;24.05;;;12.60;;
65210;SDS011;51794;52.758;55.792;2022-12-05T02:06:33;24.95;;;12.38;;
65210;SDS011;51794;52.758;55.792;2022-12-05T02:08:59;21.67;;;12.45;;
65210;SDS011;51794;52.758;55.792;2022-12-05T02:11:25;24.23;;;10.88;;
65210;SDS011;51794;52.758;55.792;2022-12-05T02:16:59;19.33;;;10.43;;
65210;SDS011;51794;52.758;55.792;2022-12-05T02:30:42;17.90;;;7.82;;
65210;SDS011;51794;52.758;55.792;2022-12-05T02:33:36;16.33;;;8.63;;
65210;SDS011;51794;52.758;55.792;2022-12-05T02:36:22;20.75;;;9.82;;
65210;SDS011;51794;52.758;55.792;2022-12-05T02:41:53;29.60;;;14.05;;
65210;SDS011;51794;52.758;55.792;2022-12-05T02:47:02;21.27;;;9.07;;
65210;SDS011;51794;52.758;55.792;2022-12-05T02:49:31;43.92;;;15.52;;
65210;SDS011;51794;52.758;55.792;2022-12-05T02:52:00;28.98;;;14.30;;
65210;SDS011;51794;52.758;55.792;2022-12-05T02:54:31;28.35;;;14.57;;
65210;SDS011;51794;52.758;55.792;2022-12-05T02:57:01;25.23;;;12.40;;
65210;SDS011;51794;52.758;55.792;2022-12-05T02:59:28;24.75;;;10.95;;
65210;SDS011;51794;52.758;55.792;2022-12-05T03:01:54;24.92;;;11.18;;
65210;SDS011;51794;52.758;55.792;2022-12-05T03:04:21;26.73;;;11.85;;
65210;SDS011;51794;52.758;55.792;2022-12-05T03:09:36;25.55;;;12.88;;
65210;SDS011;51794;52.758;55.792;2022-12-05T03:12:13;23.05;;;12.00;;
65210;SDS011;51794;52.758;55.792;2022-12-05T03:14:45;22.90;;;10.98;;
65210;SDS011;51794;52.758;55.792;2022-12-05T03:17:20;24.00;;;12.13;;
65210;SDS011;51794;52.758;55.792;2022-12-05T03:19:53;26.15;;;12.32;;
65210;SDS011;51794;52.758;55.792;2022-12-05T03:22:27;30.42;;;16.17;;
65210;SDS011;51794;52.758;55.792;2022-12-05T03:24:58;25.40;;;11.60;;
65210;SDS011;51794;52.758;55.792;2022-12-05T03:27:26;19.35;;;10.45;;
65210;SDS011;51794;52.758;55.792;2022-12-05T03:30:06;21.98;;;10.05;;
65210;SDS011;51794;52.758;55.792;2022-12-05T03:32:41;23.88;;;10.40;;
65210;SDS011;51794;52.758;55.792;2022-12-05T03:45:50;16.15;;;7.78;;
65210;SDS011;51794;52.758;55.792;2022-12-05T03:48:49;11.50;;;7.55;;
65210;SDS011;51794;52.758;55.792;2022-12-05T03:51:26;21.50;;;11.20;;
65210;SDS011;51794;52.758;55.792;2022-12-05T03:54:01;23.05;;;12.02;;
65210;SDS011;51794;52.758;55.792;2022-12-05T03:56:55;19.63;;;10.32;;
65210;SDS011;51794;52.758;55.792;2022-12-05T04:02:38;22.88;;;13.38;;
65210;SDS011;51794;52.758;55.792;2022-12-05T04:07:42;31.08;;;15.50;;
65210;SDS011;51794;52.758;55.792;2022-12-05T04:10:13;23.98;;;11.18;;
65210;SDS011;51794;52.758;55.792;2022-12-05T04:12:44;19.75;;;10.18;;
65210;SDS011;51794;52.758;55.792;2022-12-05T04:15:14;22.65;;;12.15;;
65210;SDS011;51794;52.758;55.792;2022-12-05T04:20:22;24.88;;;12.20;;
65210;SDS011;51794;52.758;55.792;2022-12-05T04:23:12;21.55;;;10.45;;
65210;SDS011;51794;52.758;55.792;2022-12-05T04:25:47;20.30;;;8.30;;
65210;SDS011;51794;52.758;55.792;2022-12-05T04:31:12;16.83;;;9.93;;
65210;SDS011;51794;52.758;55.792;2022-12-05T04:39:02;17.15;;;8.20;;
65210;SDS011;51794;52.758;55.792;2022-12-05T04:41:36;17.48;;;10.38;;
65210;SDS011;51794;52.758;55.792;2022-12-05T04:44:08;25.55;;;12.63;;
65210;SDS011;51794;52.758;55.792;2022-12-05T04:46:39;15.18;;;7.13;;
65210;SDS011;51794;52.758;55.792;2022-12-05T04:49:09;14.57;;;7.35;;
65210;SDS011;51794;52.758;55.792;2022-12-05T04:51:39;19.73;;;8.75;;
65210;SDS011;51794;52.758;55.792;2022-12-05T04:54:09;19.33;;;9.60;;
65210;SDS011;51794;52.758;55.792;2022-12-05T04:56:39;14.35;;;7.22;;
65210;SDS011;51794;52.758;55.792;2022-12-05T04:59:08;18.08;;;9.30;;
65210;SDS011;51794;52.758;55.792;2022-12-05T05:01:48;19.25;;;8.05;;
65210;SDS011;51794;52.758;55.792;2022-12-05T05:04:23;17.60;;;9.27;;
65210;SDS011;51794;52.758;55.792;2022-12-05T05:06:53;23.45;;;11.50;;
65210;SDS011;51794;52.758;55.792;2022-12-05T05:09:20;10.90;;;6.28;;
65210;SDS011;51794;52.758;55.792;2022-12-05T05:11:46;19.90;;;11.30;;
65210;SDS011;51794;52.758;55.792;2022-12-05T05:14:12;23.80;;;12.35;;
65210;SDS011;51794;52.758;55.792;2022-12-05T05:16:39;24.60;;;13.77;;
65210;SDS011;51794;52.758;55.792;2022-12-05T05:19:07;15.23;;;8.13;;
65210;SDS011;51794;52.758;55.792;2022-12-05T05:21:36;16.23;;;8.73;;
65210;SDS011;51794;52.758;55.792;2022-12-05T05:24:04;16.63;;;8.88;;
65210;SDS011;51794;52.758;55.792;2022-12-05T05:26:32;15.93;;;7.55;;
65210;SDS011;51794;52.758;55.792;2022-12-05T05:29:00;18.75;;;9.95;;
65210;SDS011;51794;52.758;55.792;2022-12-05T05:31:27;19.48;;;10.10;;
65210;SDS011;51794;52.758;55.792;2022-12-05T05:33:53;15.65;;;9.65;;
65210;SDS011;51794;52.758;55.792;2022-12-05T05:36:21;17.20;;;9.38;;
65210;SDS011;51794;52.758;55.792;2022-12-05T05:38:50;15.20;;;7.75;;
65210;SDS011;51794;52.758;55.792;2022-12-05T05:41:28;16.48;;;9.93;;
65210;SDS011;51794;52.758;55.792;2022-12-05T05:43:56;17.73;;;7.80;;
65210;SDS011;51794;52.758;55.792;2022-12-05T05:46:27;22.13;;;10.90;;
65210;SDS011;51794;52.758;55.792;2022-12-05T05:48:55;19.80;;;9.35;;
65210;SDS011;51794;52.758;55.792;2022-12-05T05:51:22;19.20;;;7.93;;
65210;SDS011;51794;52.758;55.792;2022-12-05T05:53:52;16.73;;;9.35;;
65210;SDS011;51794;52.758;55.792;2022-12-05T05:56:18;20.17;;;10.27;;
65210;SDS011;51794;52.758;55.792;2022-12-05T05:58:45;15.52;;;7.15;;
65210;SDS011;51794;52.758;55.792;2022-12-05T06:01:13;15.70;;;10.30;;
65210;SDS011;51794;52.758;55.792;2022-12-05T06:03:41;17.67;;;10.50;;
65210;SDS011;51794;52.758;55.792;2022-12-05T06:06:08;13.55;;;6.88;;
65210;SDS011;51794;52.758;55.792;2022-12-05T06:08:37;12.25;;;5.53;;
65210;SDS011;51794;52.758;55.792;2022-12-05T06:11:05;17.42;;;10.25;;
65210;SDS011;51794;52.758;55.792;2022-12-05T06:13:32;14.48;;;6.85;;
65210;SDS011;51794;52.758;55.792;2022-12-05T06:15:58;16.90;;;7.90;;
65210;SDS011;51794;52.758;55.792;2022-12-05T06:18:24;17.27;;;9.27;;
65210;SDS011;51794;52.758;55.792;2022-12-05T06:20:51;16.88;;;10.20;;
65210;SDS011;51794;52.758;55.792;2022-12-05T06:23:20;18.25;;;8.70;;
65210;SDS011;51794;52.758;55.792;2022-12-05T06:25:51;15.05;;;8.73;;
65210;SDS011;51794;52.758;55.792;2022-12-05T06:28:19;17.33;;;10.13;;
65210;SDS011;51794;52.758;55.792;2022-12-05T06:30:46;12.38;;;6.93;;
65210;SDS011;51794;52.758;55.792;2022-12-05T06:33:12;20.30;;;10.93;;
65210;SDS011;51794;52.758;55.792;2022-12-05T06:35:38;21.77;;;11.52;;
65210;SDS011;51794;52.758;55.792;2022-12-05T06:38:04;19.45;;;8.93;;
65210;SDS011;51794;52.758;55.792;2022-12-05T06:40:31;19.08;;;11.18;;
65210;SDS011;51794;52.758;55.792;2022-12-05T06:42:58;13.73;;;8.18;;
65210;SDS011;51794;52.758;55.792;2022-12-05T06:45:24;17.00;;;9.40;;
65210;SDS011;51794;52.758;55.792;2022-12-05T06:47:50;17.17;;;8.00;;
65210;SDS011;51794;52.758;55.792;2022-12-05T06:50:18;12.15;;;6.30;;
65210;SDS011;51794;52.758;55.792;2022-12-05T06:52:44;15.07;;;8.73;;
65210;SDS011;51794;52.758;55.792;2022-12-05T06:55:10;18.85;;;10.48;;
65210;SDS011;51794;52.758;55.792;2022-12-05T06:57:36;15.82;;;7.82;;
65210;SDS011;51794;52.758;55.792;2022-12-05T07:00:02;17.50;;;10.75;;
65210;SDS011;51794;52.758;55.792;2022-12-05T07:02:49;15.43;;;9.40;;
65210;SDS011;51794;52.758;55.792;2022-12-05T07:05:16;20.10;;;9.65;;
65210;SDS011;51794;52.758;55.792;2022-12-05T07:07:42;13.45;;;7.35;;
65210;SDS011;51794;52.758;55.792;2022-12-05T07:10:08;22.05;;;11.43;;
65210;SDS011;51794;52.758;55.792;2022-12-05T07:12:34;13.90;;;7.80;;
65210;SDS011;51794;52.758;55.792;2022-12-05T07:15:00;16.90;;;8.20;;
65210;SDS011;51794;52.758;55.792;2022-12-05T07:17:26;20.17;;;9.95;;
65210;SDS011;51794;52.758;55.792;2022-12-05T07:19:52;26.08;;;10.10;;
65210;SDS011;51794;52.758;55.792;2022-12-05T07:22:20;23.13;;;11.65;;
65210;SDS011;51794;52.758;55.792;2022-12-05T07:24:47;13.75;;;8.65;;
65210;SDS011;51794;52.758;55.792;2022-12-05T07:27:15;23.20;;;12.50;;
65210;SDS011;51794;52.758;55.792;2022-12-05T07:29:41;22.17;;;10.93;;
65210;SDS011;51794;52.758;55.792;2022-12-05T07:32:07;18.45;;;8.63;;
65210;SDS011;51794;52.758;55.792;2022-12-05T07:34:34;17.30;;;9.70;;
65210;SDS011;51794;52.758;55.792;2022-12-05T07:37:00;15.68;;;7.40;;
65210;SDS011;51794;52.758;55.792;2022-12-05T07:39:26;23.83;;;11.00;;
65210;SDS011;51794;52.758;55.792;2022-12-05T07:41:52;21.02;;;10.10;;
65210;SDS011;51794;52.758;55.792;2022-12-05T07:44:18;21.08;;;10.60;;
65210;SDS011;51794;52.758;55.792;2022-12-05T07:46:44;13.18;;;6.30;;
65210;SDS011;51794;52.758;55.792;2022-12-05T07:49:10;15.05;;;6.32;;
65210;SDS011;51794;52.758;55.792;2022-12-05T07:51:36;19.70;;;10.15;;
65210;SDS011;51794;52.758;55.792;2022-12-05T07:54:03;19.60;;;8.15;;
65210;SDS011;51794;52.758;55.792;2022-12-05T07:56:30;19.38;;;8.95;;
65210;SDS011;51794;52.758;55.792;2022-12-05T07:58:56;23.75;;;7.88;;
65210;SDS011;51794;52.758;55.792;2022-12-05T08:01:23;15.27;;;7.18;;
65210;SDS011;51794;52.758;55.792;2022-12-05T08:03:51;15.05;;;7.70;;
65210;SDS011;51794;52.758;55.792;2022-12-05T08:06:20;17.50;;;9.25;;
65210;SDS011;51794;52.758;55.792;2022-12-05T08:08:50;18.40;;;8.65;;
65210;SDS011;51794;52.758;55.792;2022-12-05T08:11:19;16.23;;;9.23;;
65210;SDS011;51794;52.758;55.792;2022-12-05T08:13:49;12.30;;;7.00;;
65210;SDS011;51794;52.758;55.792;2022-12-05T08:16:17;17.73;;;8.63;;
65210;SDS011;51794;52.758;55.792;2022-12-05T08:18:45;23.70;;;12.43;;
65210;SDS011;51794;52.758;55.792;2022-12-05T08:21:12;16.20;;;7.85;;
65210;SDS011;51794;52.758;55.792;2022-12-05T08:23:40;16.83;;;8.85;;
65210;SDS011;51794;52.758;55.792;2022-12-05T08:26:08;15.60;;;8.48;;
65210;SDS011;51794;52.758;55.792;2022-12-05T08:28:36;16.33;;;8.82;;
65210;SDS011;51794;52.758;55.792;2022-12-05T08:31:04;19.30;;;9.25;;
65210;SDS011;51794;52.758;55.792;2022-12-05T08:33:32;19.60;;;9.90;;
65210;SDS011;51794;52.758;55.792;2022-12-05T08:36:02;14.20;;;6.68;;
65210;SDS011;51794;52.758;55.792;2022-12-05T08:38:30;11.10;;;5.75;;
65210;SDS011;51794;52.758;55.792;2022-12-05T08:40:59;12.60;;;7.63;;
65210;SDS011;51794;52.758;55.792;2022-12-05T08:43:26;26.00;;;9.90;;
65210;SDS011;51794;52.758;55.792;2022-12-05T08:45:53;13.25;;;6.93;;
65210;SDS011;51794;52.758;55.792;2022-12-05T08:48:19;18.85;;;9.50;;
65210;SDS011;51794;52.758;55.792;2022-12-05T08:50:46;24.27;;;14.30;;
65210;SDS011;51794;52.758;55.792;2022-12-05T08:53:12;22.85;;;10.60;;
65210;SDS011;51794;52.758;55.792;2022-12-05T08:55:39;21.02;;;8.95;;
65210;SDS011;51794;52.758;55.792;2022-12-05T08:58:05;23.75;;;12.50;;
65210;SDS011;51794;52.758;55.792;2022-12-05T09:00:31;22.13;;;9.43;;
65210;SDS011;51794;52.758;55.792;2022-12-05T09:02:57;14.80;;;7.50;;
65210;SDS011;51794;52.758;55.792;2022-12-05T09:05:24;24.75;;;12.77;;
65210;SDS011;51794;52.758;55.792;2022-12-05T09:07:50;20.88;;;10.68;;
65210;SDS011;51794;52.758;55.792;2022-12-05T09:10:17;23.98;;;10.63;;
65210;SDS011;51794;52.758;55.792;2022-12-05T09:12:43;34.58;;;8.32;;
65210;SDS011;51794;52.758;55.792;2022-12-05T09:15:10;21.88;;;9.65;;
65210;SDS011;51794;52.758;55.792;2022-12-05T09:17:37;17.05;;;8.80;;
65210;SDS011;51794;52.758;55.792;2022-12-05T09:20:04;17.98;;;9.63;;
65210;SDS011;51794;52.758;55.792;2022-12-05T09:22:31;23.88;;;12.25;;
65210;SDS011;51794;52.758;55.792;2022-12-05T09:24:58;21.20;;;9.43;;
65210;SDS011;51794;52.758;55.792;2022-12-05T09:27:26;17.45;;;6.95;;
65210;SDS011;51794;52.758;55.792;2022-12-05T09:29:52;17.35;;;8.88;;
65210;SDS011;51794;52.758;55.792;2022-12-05T09:32:18;19.83;;;11.52;;
65210;SDS011;51794;52.758;55.792;2022-12-05T09:34:44;18.10;;;9.23;;
65210;SDS011;51794;52.758;55.792;2022-12-05T09:37:10;18.30;;;9.20;;
65210;SDS011;51794;52.758;55.792;2022-12-05T09:39:36;15.13;;;7.72;;
65210;SDS011;51794;52.758;55.792;2022-12-05T09:47:50;19.70;;;8.88;;
65210;SDS011;51794;52.758;55.792;2022-12-05T09:50:25;15.65;;;8.07;;
65210;SDS011;51794;52.758;55.792;2022-12-05T09:55:54;23.08;;;10.25;;
65210;SDS011;51794;52.758;55.792;2022-12-05T10:04:21;14.90;;;7.65;;
65210;SDS011;51794;52.758;55.792;2022-12-05T10:07:14;25.08;;;10.90;;
65210;SDS011;51794;52.758;55.792;2022-12-05T10:18:36;23.55;;;10.80;;
65210;SDS011;51794;52.758;55.792;2022-12-05T10:26:18;31.50;;;14.20;;
65210;SDS011;51794;52.758;55.792;2022-12-05T10:31:17;26.75;;;11.40;;
65210;SDS011;51794;52.758;55.792;2022-12-05T10:33:50;25.02;;;10.88;;
65210;SDS011;51794;52.758;55.792;2022-12-05T10:36:23;21.73;;;10.98;;
65210;SDS011;51794;52.758;55.792;2022-12-05T10:38:49;40.40;;;15.70;;
65210;SDS011;51794;52.758;55.792;2022-12-05T10:41:15;28.02;;;12.57;;
65210;SDS011;51794;52.758;55.792;2022-12-05T10:43:43;40.05;;;17.45;;
65210;SDS011;51794;52.758;55.792;2022-12-05T10:46:10;39.13;;;16.70;;
65210;SDS011;51794;52.758;55.792;2022-12-05T10:48:38;30.92;;;12.90;;
65210;SDS011;51794;52.758;55.792;2022-12-05T10:51:06;42.78;;;15.73;;
65210;SDS011;51794;52.758;55.792;2022-12-05T10:53:43;45.30;;;14.65;;
65210;SDS011;51794;52.758;55.792;2022-12-05T10:59:15;43.25;;;16.65;;
65210;SDS011;51794;52.758;55.792;2022-12-05T11:01:53;40.42;;;16.67;;
65210;SDS011;51794;52.758;55.792;2022-12-05T11:04:27;43.97;;;15.80;;
65210;SDS011;51794;52.758;55.792;2022-12-05T11:07:04;43.70;;;16.33;;
65210;SDS011;51794;52.758;55.792;2022-12-05T11:09:37;38.92;;;17.15;;
65210;SDS011;51794;52.758;55.792;2022-12-05T11:12:19;36.47;;;13.48;;
65210;SDS011;51794;52.758;55.792;2022-12-05T11:15:00;42.13;;;16.85;;
65210;SDS011;51794;52.758;55.792;2022-12-05T11:17:34;43.60;;;14.05;;
65210;SDS011;51794;52.758;55.792;2022-12-05T11:20:03;25.45;;;11.32;;
65210;SDS011;51794;52.758;55.792;2022-12-05T11:22:49;35.50;;;11.85;;
65210;SDS011;51794;52.758;55.792;2022-12-05T11:27:56;34.92;;;13.05;;
65210;SDS011;51794;52.758;55.792;2022-12-05T11:30:24;32.38;;;14.63;;
65210;SDS011;51794;52.758;55.792;2022-12-05T11:35:46;27.67;;;12.27;;
65210;SDS011;51794;52.758;55.792;2022-12-05T11:38:14;43.05;;;17.17;;
65210;SDS011;51794;52.758;55.792;2022-12-05T11:51:58;30.77;;;12.85;;
65210;SDS011;51794;52.758;55.792;2022-12-05T11:54:58;31.08;;;14.77;;
65210;SDS011;51794;52.758;55.792;2022-12-05T12:20:13;38.00;;;16.48;;
65210;SDS011;51794;52.758;55.792;2022-12-05T12:30:51;41.40;;;17.42;;
65210;SDS011;51794;52.758;55.792;2022-12-05T12:36:14;29.75;;;12.55;;
65210;SDS011;51794;52.758;55.792;2022-12-05T12:50:30;33.58;;;15.15;;
65210;SDS011;51794;52.758;55.792;2022-12-05T12:53:07;27.92;;;11.88;;
65210;SDS011;51794;52.758;55.792;2022-12-05T13:03:53;38.97;;;15.80;;
65210;SDS011;51794;52.758;55.792;2022-12-05T13:06:47;36.30;;;15.70;;
65210;SDS011;51794;52.758;55.792;2022-12-05T13:11:47;34.63;;;15.20;;
65210;SDS011;51794;52.758;55.792;2022-12-05T13:14:16;34.17;;;14.18;;
65210;SDS011;51794;52.758;55.792;2022-12-05T13:16:48;42.70;;;17.33;;
65210;SDS011;51794;52.758;55.792;2022-12-05T13:22:19;36.65;;;14.30;;
65210;SDS011;51794;52.758;55.792;2022-12-05T13:24:49;29.23;;;11.05;;
65210;SDS011;51794;52.758;55.792;2022-12-05T13:27:17;28.80;;;14.25;;
65210;SDS011;51794;52.758;55.792;2022-12-05T13:29:52;13.15;;;5.95;;
65210;SDS011;51794;52.758;55.792;2022-12-05T13:32:24;19.95;;;7.72;;
65210;SDS011;51794;52.758;55.792;2022-12-05T13:35:18;30.60;;;12.65;;
65210;SDS011;51794;52.758;55.792;2022-12-05T13:38:29;25.95;;;11.63;;
65210;SDS011;51794;52.758;55.792;2022-12-05T13:41:17;23.88;;;10.95;;
65210;SDS011;51794;52.758;55.792;2022-12-05T13:44:01;22.58;;;9.27;;
65210;SDS011;51794;52.758;55.792;2022-12-05T13:46:37;28.17;;;11.90;;
65210;SDS011;51794;52.758;55.792;2022-12-05T13:49:14;28.00;;;10.63;;
65210;SDS011;51794;52.758;55.792;2022-12-05T13:51:45;12.40;;;7.03;;
65210;SDS011;51794;52.758;55.792;2022-12-05T13:54:14;24.10;;;10.75;;
65210;SDS011;51794;52.758;55.792;2022-12-05T14:07:44;25.33;;;11.05;;
65210;SDS011;51794;52.758;55.792;2022-12-05T14:15:40;25.08;;;11.50;;
65210;SDS011;51794;52.758;55.792;2022-12-05T14:26:30;24.25;;;10.60;;
65210;SDS011;51794;52.758;55.792;2022-12-05T14:34:51;7.55;;;3.95;;
65210;SDS011;51794;52.758;55.792;2022-12-05T14:37:28;16.83;;;7.43;;
65210;SDS011;51794;52.758;55.792;2022-12-05T14:39:58;26.23;;;10.55;;
65210;SDS011;51794;52.758;55.792;2022-12-05T14:45:22;15.88;;;7.57;;
65210;SDS011;51794;52.758;55.792;2022-12-05T14:48:38;21.63;;;10.70;;
65210;SDS011;51794;52.758;55.792;2022-12-05T14:50:43;20.15;;;9.80;;
65210;SDS011;51794;52.758;55.792;2022-12-05T14:55:40;21.67;;;10.60;;
65210;SDS011;51794;52.758;55.792;2022-12-05T15:00:59;19.55;;;8.93;;
65210;SDS011;51794;52.758;55.792;2022-12-05T15:03:34;24.83;;;11.13;;
65210;SDS011;51794;52.758;55.792;2022-12-05T15:06:05;23.73;;;9.73;;
65210;SDS011;51794;52.758;55.792;2022-12-05T15:08:46;15.55;;;6.93;;
65210;SDS011;51794;52.758;55.792;2022-12-05T15:11:17;15.70;;;7.78;;
65210;SDS011;51794;52.758;55.792;2022-12-05T15:16:37;29.23;;;12.68;;
65210;SDS011;51794;52.758;55.792;2022-12-05T15:19:14;16.77;;;7.72;;
65210;SDS011;51794;52.758;55.792;2022-12-05T15:21:47;20.23;;;9.65;;
65210;SDS011;51794;52.758;55.792;2022-12-05T15:24:21;21.45;;;10.32;;
65210;SDS011;51794;52.758;55.792;2022-12-05T15:26:48;16.75;;;8.27;;
65210;SDS011;51794;52.758;55.792;2022-12-05T15:34:29;23.17;;;8.73;;
65210;SDS011;51794;52.758;55.792;2022-12-05T15:37:09;15.02;;;8.40;;
65210;SDS011;51794;52.758;55.792;2022-12-05T15:42:35;19.90;;;8.93;;
65210;SDS011;51794;52.758;55.792;2022-12-05T15:47:41;19.92;;;9.98;;
65210;SDS011;51794;52.758;55.792;2022-12-05T15:50:15;18.00;;;7.40;;
65210;SDS011;51794;52.758;55.792;2022-12-05T15:53:49;20.08;;;8.70;;
65210;SDS011;51794;52.758;55.792;2022-12-05T15:55:57;17.67;;;8.20;;
65210;SDS011;51794;52.758;55.792;2022-12-05T15:58:41;16.90;;;7.57;;
65210;SDS011;51794;52.758;55.792;2022-12-05T16:01:30;17.60;;;8.30;;
65210;SDS011;51794;52.758;55.792;2022-12-05T16:06:30;15.18;;;8.63;;
65210;SDS011;51794;52.758;55.792;2022-12-05T16:09:08;17.20;;;8.48;;
65210;SDS011;51794;52.758;55.792;2022-12-05T16:14:17;11.80;;;5.68;;
65210;SDS011;51794;52.758;55.792;2022-12-05T16:16:44;14.02;;;5.57;;
65210;SDS011;51794;52.758;55.792;2022-12-05T16:19:20;20.45;;;9.65;;
65210;SDS011;51794;52.758;55.792;2022-12-05T16:24:41;21.17;;;9.60;;
65210;SDS011;51794;52.758;55.792;2022-12-05T16:30:22;18.05;;;9.20;;
65210;SDS011;51794;52.758;55.792;2022-12-05T16:32:49;22.80;;;9.45;;
65210;SDS011;51794;52.758;55.792;2022-12-05T16:35:28;23.15;;;10.10;;
65210;SDS011;51794;52.758;55.792;2022-12-05T16:43:28;21.63;;;9.93;;
65210;SDS011;51794;52.758;55.792;2022-12-05T16:48:38;11.02;;;5.47;;
65210;SDS011;51794;52.758;55.792;2022-12-05T16:51:23;22.05;;;10.30;;
65210;SDS011;51794;52.758;55.792;2022-12-05T16:53:52;29.00;;;11.70;;
65210;SDS011;51794;52.758;55.792;2022-12-05T16:56:20;17.27;;;8.40;;
65210;SDS011;51794;52.758;55.792;2022-12-05T16:58:49;23.95;;;9.55;;
65210;SDS011;51794;52.758;55.792;2022-12-05T17:01:17;22.35;;;9.27;;
65210;SDS011;51794;52.758;55.792;2022-12-05T17:03:50;22.33;;;10.98;;
65210;SDS011;51794;52.758;55.792;2022-12-05T17:06:18;25.50;;;9.73;;
65210;SDS011;51794;52.758;55.792;2022-12-05T17:13:46;18.08;;;8.43;;
65210;SDS011;51794;52.758;55.792;2022-12-05T17:16:13;16.63;;;7.72;;
65210;SDS011;51794;52.758;55.792;2022-12-05T17:18:40;23.38;;;10.13;;
65210;SDS011;51794;52.758;55.792;2022-12-05T17:21:09;15.52;;;8.35;;
65210;SDS011;51794;52.758;55.792;2022-12-05T17:23:38;18.95;;;8.93;;
65210;SDS011;51794;52.758;55.792;2022-12-05T17:26:04;15.27;;;6.60;;
65210;SDS011;51794;52.758;55.792;2022-12-05T17:28:30;19.70;;;8.32;;
65210;SDS011;51794;52.758;55.792;2022-12-05T17:30:56;26.10;;;10.52;;
65210;SDS011;51794;52.758;55.792;2022-12-05T17:33:22;26.40;;;10.18;;
65210;SDS011;51794;52.758;55.792;2022-12-05T17:35:48;21.73;;;10.85;;
65210;SDS011;51794;52.758;55.792;2022-12-05T17:38:16;25.30;;;10.63;;
65210;SDS011;51794;52.758;55.792;2022-12-05T17:40:42;23.20;;;9.27;;
65210;SDS011;51794;52.758;55.792;2022-12-05T17:43:09;20.27;;;8.23;;
65210;SDS011;51794;52.758;55.792;2022-12-05T17:45:38;17.75;;;8.10;;
65210;SDS011;51794;52.758;55.792;2022-12-05T17:48:04;20.55;;;8.50;;
65210;SDS011;51794;52.758;55.792;2022-12-05T17:50:30;25.60;;;9.50;;
65210;SDS011;51794;52.758;55.792;2022-12-05T17:52:56;24.15;;;11.13;;
65210;SDS011;51794;52.758;55.792;2022-12-05T17:55:24;18.55;;;8.40;;
65210;SDS011;51794;52.758;55.792;2022-12-05T17:57:53;26.73;;;9.70;;
65210;SDS011;51794;52.758;55.792;2022-12-05T18:00:20;20.67;;;9.43;;
65210;SDS011;51794;52.758;55.792;2022-12-05T18:02:47;13.82;;;6.90;;
65210;SDS011;51794;52.758;55.792;2022-12-05T18:05:14;17.58;;;8.07;;
65210;SDS011;51794;52.758;55.792;2022-12-05T18:07:42;25.35;;;11.02;;
65210;SDS011;51794;52.758;55.792;2022-12-05T18:10:10;23.50;;;9.43;;
65210;SDS011;51794;52.758;55.792;2022-12-05T18:12:39;24.25;;;9.98;;
65210;SDS011;51794;52.758;55.792;2022-12-05T18:15:06;24.65;;;9.32;;
65210;SDS011;51794;52.758;55.792;2022-12-05T18:17:32;14.82;;;6.05;;
65210;SDS011;51794;52.758;55.792;2022-12-05T18:19:59;19.10;;;8.65;;
65210;SDS011;51794;52.758;55.792;2022-12-05T18:22:27;21.45;;;8.63;;
65210;SDS011;51794;52.758;55.792;2022-12-05T18:24:53;26.00;;;9.95;;
65210;SDS011;51794;52.758;55.792;2022-12-05T18:27:21;22.33;;;9.88;;
65210;SDS011;51794;52.758;55.792;2022-12-05T18:29:47;11.40;;;5.68;;
65210;SDS011;51794;52.758;55.792;2022-12-05T18:32:13;21.52;;;11.30;;